Terminal Aerodrome Forecast
Issued by NWS

Home | Current Version | Previous Version | Text Only | Print | Product List | Glossary On
Versions: 1 2 3 4 5 6 7 8 9 10 11 12 13 14 15 16 17 18 19
000
FTUS43 KMQT 221100
TAFSAW
TAF
KSAW 221120Z 2212/2312 VRB03KT P6SM BKN050
     FM221500 27010KT P6SM SKC
     FM230000 24005KT P6SM SKC
      AMD LTD TO CLD VIS AND WIND 2302/2310=

USA.gov is the U.S. government's official web portal to all federal, state and local government web resources and services.